createdAt,value
2019-03-20T00:06:28.397Z,38.97
2019-03-20T00:16:33.486Z,42.50
2019-03-20T00:26:38.826Z,49.57
2019-03-20T00:36:44.370Z,52.97
2019-03-20T00:46:49.851Z,36.37
2019-03-20T00:56:55.354Z,39.13
2019-03-20T01:07:00.944Z,20.17
2019-03-20T01:17:06.416Z,21.00
2019-03-20T01:27:11.918Z,23.27
2019-03-20T01:37:17.498Z,26.40
2019-03-20T01:47:23.089Z,30.77
2019-03-20T01:57:28.634Z,36.10
2019-03-20T02:07:34.304Z,36.63
2019-03-20T02:17:41.011Z,38.07
2019-03-20T02:27:46.735Z,36.37
2019-03-20T02:37:52.342Z,38.23
2019-03-20T02:47:57.836Z,37.20
2019-03-20T02:58:03.339Z,43.03
2019-03-20T03:08:08.875Z,41.43
2019-03-20T03:18:14.530Z,90.77
2019-03-20T03:28:20.075Z,130.67
2019-03-20T03:38:25.658Z,75.70
2019-03-20T03:48:32.298Z,74.30
2019-03-20T03:58:38.123Z,78.43
2019-03-20T04:08:43.714Z,68.50
2019-03-20T04:18:49.301Z,61.97
2019-03-20T04:29:00.562Z,60.17
2019-03-20T04:39:07.603Z,59.90
2019-03-20T04:49:13.097Z,58.97
2019-03-20T04:59:18.646Z,69.73
2019-03-20T05:09:24.250Z,67.40
2019-03-20T05:19:29.834Z,71.57
2019-03-20T05:29:38.831Z,78.07
2019-03-20T05:39:44.466Z,91.97
2019-03-20T05:49:50.435Z,111.30
2019-03-20T05:59:56.015Z,101.97
2019-03-20T06:10:01.779Z,98.90
2019-03-20T06:20:10.460Z,82.57
2019-03-20T06:30:17.169Z,87.63
2019-03-20T06:40:22.802Z,90.60
2019-03-20T06:50:28.318Z,102.93
2019-03-20T07:00:49.607Z,96.37
2019-03-20T07:11:04.698Z,89.30
2019-03-20T07:21:18.725Z,88.07
2019-03-20T07:31:24.500Z,90.03
2019-03-20T07:41:29.999Z,96.00
2019-03-20T07:51:37.596Z,94.97
2019-03-20T08:01:43.158Z,60.70
2019-03-20T08:11:48.782Z,54.77
2019-03-20T08:21:54.375Z,29.73
2019-03-20T08:31:59.877Z,19.63
2019-03-20T08:52:28.925Z,9.50
2019-03-20T09:02:34.431Z,12.27
2019-03-20T09:12:40.177Z,11.20
2019-03-20T09:22:46.076Z,11.07
2019-03-20T09:32:51.881Z,10.97
2019-03-20T09:42:58.780Z,8.53
2019-03-20T09:53:04.445Z,8.13
2019-03-20T10:03:10.954Z,10.43
2019-03-20T10:13:16.628Z,10.00
2019-03-20T10:23:22.343Z,9.77
2019-03-20T10:33:27.955Z,9.50
2019-03-20T10:43:55.762Z,6.97
2019-03-20T10:54:01.388Z,6.97
2019-03-20T11:04:08.364Z,8.60
2019-03-20T11:14:14.033Z,13.33
2019-03-20T11:24:19.733Z,8.13
2019-03-20T11:34:25.491Z,7.57
2019-03-20T11:44:31.133Z,7.83
2019-03-20T11:54:36.874Z,6.57
2019-03-20T12:04:42.512Z,5.27
2019-03-20T12:14:48.164Z,5.57
2019-03-20T12:24:53.714Z,7.57
2019-03-20T12:34:59.337Z,6.70
2019-03-20T12:45:06.797Z,6.03
2019-03-20T12:55:15.883Z,7.60
2019-03-20T13:05:21.762Z,6.10
2019-03-20T13:15:33.430Z,7.30
2019-03-20T13:25:38.431Z,4.20
2019-03-20T13:35:44.076Z,4.40
2019-03-20T13:45:49.699Z,5.20
2019-03-20T13:55:59.192Z,8.60
2019-03-20T14:06:05.051Z,10.20
2019-03-20T14:16:10.707Z,9.27
2019-03-20T14:26:16.354Z,7.40
2019-03-20T14:36:22.042Z,10.00
2019-03-20T14:46:27.933Z,10.50
2019-03-20T14:56:33.563Z,9.53
2019-03-20T15:06:39.208Z,5.77
2019-03-20T15:16:44.860Z,8.53
2019-03-20T15:26:50.401Z,5.77
2019-03-20T15:36:56.029Z,4.97
2019-03-20T15:47:01.922Z,5.23
2019-03-20T15:57:07.553Z,5.90
2019-03-20T16:07:13.212Z,7.10
2019-03-20T16:17:19.163Z,7.40
2019-03-20T16:27:25.112Z,9.77
2019-03-20T16:37:30.937Z,7.27
2019-03-20T16:47:37.010Z,6.07
2019-03-20T16:57:42.962Z,9.77
2019-03-20T17:07:49.087Z,13.10
2019-03-20T17:17:55.143Z,18.20
2019-03-20T17:28:01.084Z,17.53
2019-03-20T17:38:07.144Z,32.40
2019-03-20T17:48:13.169Z,41.03
2019-03-20T17:58:20.522Z,37.27
2019-03-20T18:08:26.650Z,58.00
2019-03-20T18:18:32.955Z,58.43
2019-03-20T18:28:39.299Z,52.57
2019-03-20T18:38:45.374Z,57.47
2019-03-20T18:48:52.633Z,130.90
2019-03-20T18:58:58.816Z,133.00
2019-03-20T19:19:47.231Z,165.30
2019-03-20T19:29:53.399Z,138.13
2019-03-20T19:39:59.494Z,187.43
2019-03-20T19:50:08.651Z,142.43
2019-03-20T20:00:22.615Z,122.63
2019-03-20T20:10:28.920Z,117.57
2019-03-20T20:20:36.541Z,117.07
2019-03-20T20:30:42.559Z,127.33
2019-03-20T20:40:49.906Z,155.10
2019-03-20T20:50:55.942Z,127.63
2019-03-20T21:01:01.956Z,166.40
2019-03-20T21:11:07.882Z,134.30
2019-03-20T21:21:13.868Z,139.63
2019-03-20T21:31:25.344Z,137.97
2019-03-20T21:41:33.996Z,119.53
2019-03-20T21:51:39.832Z,108.30
2019-03-20T22:02:02.922Z,109.17
2019-03-20T22:12:36.660Z,102.77
2019-03-20T22:23:09.547Z,80.33
2019-03-20T22:33:51.397Z,95.87
2019-03-20T22:43:59.922Z,83.03
2019-03-20T22:54:40.214Z,80.40
2019-03-20T23:04:54.925Z,83.90
2019-03-20T23:15:00.584Z,74.07
2019-03-20T23:25:10.693Z,62.00
2019-03-20T23:35:16.767Z,57.23
2019-03-20T23:45:22.487Z,54.50
2019-03-20T23:55:28.236Z,53.43
